Time;durP1;ratioP1;P1;durP2;ratioP2;P2;SDS_P1;SDS_P2;PMS_P1;PMS_P2;Temp;Humidity;BMP_temperature;BMP_pressure;BME280_temperature;BME280_humidity;BME280_pressure;Samples;Min_cycle;Max_cycle;Signal;HPM_P1;HPM_P2
2022/03/04 00:01:37;;;;;;;25.08;8.98;;;13.40;48.30;;;;;;6249496;28;20133;-69
2022/03/04 00:04:38;;;;;;;16.27;8.20;;;13.30;48.40;;;;;;6247665;28;20045;-70
2022/03/04 00:07:39;;;;;;;22.95;8.60;;;13.30;48.50;;;;;;6272993;28;20048;-70
2022/03/04 00:10:40;;;;;;;19.88;9.02;;;13.30;48.60;;;;;;6272094;28;20037;-69
2022/03/04 00:13:41;;;;;;;18.45;8.07;;;13.20;48.70;;;;;;6273305;28;20060;-69
2022/03/04 00:16:42;;;;;;;19.92;8.13;;;13.20;48.80;;;;;;6273890;28;20029;-69
2022/03/04 00:19:42;;;;;;;25.13;9.25;;;13.20;48.90;;;;;;6247734;28;20045;-69
2022/03/04 00:22:44;;;;;;;17.65;8.85;;;13.20;48.90;;;;;;6265691;28;20453;-69
2022/03/04 00:25:46;;;;;;;19.77;8.35;;;13.10;49.00;;;;;;6272272;28;20091;-70
2022/03/04 00:28:47;;;;;;;19.27;8.35;;;13.10;49.00;;;;;;6272292;28;20124;-70
2022/03/04 00:31:48;;;;;;;21.13;8.25;;;13.00;49.10;;;;;;6271805;28;20078;-69
2022/03/04 00:34:50;;;;;;;17.33;7.72;;;13.00;49.10;;;;;;6273380;28;20117;-69
2022/03/04 00:37:51;;;;;;;22.63;8.90;;;13.00;49.10;;;;;;6256504;28;20113;-70
2022/03/04 00:40:52;;;;;;;22.17;9.07;;;13.00;49.20;;;;;;6247941;28;20033;-69
2022/03/04 00:43:53;;;;;;;29.25;10.23;;;12.90;49.20;;;;;;6266805;28;20347;-69
2022/03/04 00:46:54;;;;;;;15.35;8.35;;;12.90;49.80;;;;;;6274695;28;20120;-69
2022/03/04 00:49:54;;;;;;;21.60;8.85;;;12.90;49.80;;;;;;6270173;28;20075;-69
2022/03/04 00:52:57;;;;;;;23.58;9.57;;;12.80;49.30;;;;;;6270068;28;20033;-70
2022/03/04 00:55:58;;;;;;;19.98;8.45;;;12.80;49.30;;;;;;6248083;28;20080;-69
2022/03/04 00:58:59;;;;;;;21.00;8.73;;;12.80;49.30;;;;;;6249310;28;20382;-69
2022/03/04 01:02:01;;;;;;;19.10;7.95;;;12.80;49.30;;;;;;6272641;28;20048;-69
2022/03/04 01:05:02;;;;;;;17.55;8.75;;;12.70;49.10;;;;;;6273794;28;20473;-70
2022/03/04 01:08:03;;;;;;;22.33;8.80;;;12.70;49.10;;;;;;6272794;28;20053;-69
2022/03/04 01:11:04;;;;;;;18.38;9.00;;;12.70;49.10;;;;;;6271776;28;20036;-69
2022/03/04 01:14:06;;;;;;;19.15;8.88;;;12.70;49.20;;;;;;6255995;28;20036;-69
2022/03/04 01:17:07;;;;;;;19.40;8.32;;;12.60;49.30;;;;;;6274339;28;20037;-69
2022/03/04 01:20:09;;;;;;;34.33;8.57;;;12.60;49.40;;;;;;6275426;28;20057;-69
2022/03/04 01:23:10;;;;;;;22.27;9.70;;;12.50;49.60;;;;;;6257128;28;20033;-69
2022/03/04 01:26:10;;;;;;;17.15;9.27;;;12.50;49.70;;;;;;6273691;28;20037;-69
2022/03/04 01:29:11;;;;;;;17.15;8.63;;;12.40;49.70;;;;;;6248200;28;20033;-69
2022/03/04 01:32:12;;;;;;;18.98;9.02;;;12.40;49.70;;;;;;6264103;28;20130;-69
2022/03/04 01:35:13;;;;;;;23.98;9.35;;;12.40;49.70;;;;;;6272238;28;20041;-69
2022/03/04 01:38:14;;;;;;;21.20;8.70;;;12.30;49.70;;;;;;6271952;28;20095;-69
2022/03/04 01:41:16;;;;;;;28.23;9.68;;;12.30;49.80;;;;;;6271197;28;20041;-69
2022/03/04 01:44:17;;;;;;;21.52;8.63;;;12.30;49.90;;;;;;6271671;28;20029;-70
2022/03/04 01:47:18;;;;;;;21.98;9.65;;;12.30;50.10;;;;;;6255431;28;20132;-69
2022/03/04 01:50:19;;;;;;;25.35;9.90;;;12.30;50.30;;;;;;6272557;28;20060;-69
2022/03/04 01:53:21;;;;;;;20.63;9.73;;;12.20;50.50;;;;;;6273175;28;20048;-69
2022/03/04 01:56:24;;;;;;;18.85;9.23;;;12.10;50.50;;;;;;6272261;28;20132;-69
2022/03/04 01:59:26;;;;;;;22.42;8.88;;;12.10;50.70;;;;;;6249130;28;20163;-69
2022/03/04 02:02:26;;;;;;;22.85;8.98;;;12.00;50.90;;;;;;6266183;28;20116;-70
2022/03/04 02:05:27;;;;;;;20.52;8.27;;;12.00;51.00;;;;;;6247548;28;20046;-69
2022/03/04 02:08:28;;;;;;;22.40;8.80;;;12.00;51.20;;;;;;6247688;28;20465;-69
2022/03/04 02:11:29;;;;;;;18.25;8.25;;;12.00;51.30;;;;;;6222300;28;20038;-69
2022/03/04 02:14:30;;;;;;;21.55;9.05;;;11.90;51.50;;;;;;6223765;28;20461;-69
2022/03/04 02:17:31;;;;;;;18.25;7.70;;;11.90;51.60;;;;;;6239064;28;20111;-69
2022/03/04 02:20:33;;;;;;;30.05;8.60;;;11.80;51.70;;;;;;6247033;28;20434;-69
2022/03/04 02:23:34;;;;;;;15.38;7.53;;;11.80;51.70;;;;;;6248681;28;20060;-69
2022/03/04 02:26:36;;;;;;;17.75;7.15;;;11.80;51.70;;;;;;6221022;28;20029;-69
2022/03/04 02:29:37;;;;;;;18.88;7.93;;;11.70;51.80;;;;;;6247260;28;20511;-69
2022/03/04 02:32:38;;;;;;;17.35;8.65;;;11.70;51.80;;;;;;6207374;28;20034;-69
2022/03/04 02:35:40;;;;;;;19.98;8.52;;;11.70;51.90;;;;;;6206226;28;20414;-69
2022/03/04 02:38:41;;;;;;;21.17;8.98;;;11.70;52.00;;;;;;6252210;28;20050;-70
2022/03/04 02:41:42;;;;;;;22.80;8.55;;;11.70;52.00;;;;;;6267704;28;20446;-69
2022/03/04 02:44:43;;;;;;;21.33;8.07;;;11.60;52.10;;;;;;6269542;28;20067;-69
2022/03/04 02:47:44;;;;;;;20.92;8.05;;;11.60;52.20;;;;;;6270098;28;20442;-69
2022/03/04 02:50:45;;;;;;;18.40;7.35;;;11.50;52.30;;;;;;6250905;28;20045;-69
2022/03/04 02:53:46;;;;;;;16.73;7.70;;;11.50;52.40;;;;;;6264998;28;20377;-69
2022/03/04 02:56:47;;;;;;;15.38;7.80;;;11.40;52.60;;;;;;6268571;28;20130;-69
2022/03/04 02:59:48;;;;;;;24.20;8.25;;;11.40;52.70;;;;;;6246715;28;20152;-69
2022/03/04 03:02:49;;;;;;;16.02;8.05;;;11.40;52.70;;;;;;6257356;28;20072;-70
2022/03/04 03:05:50;;;;;;;29.38;7.88;;;11.40;52.80;;;;;;6271228;28;20055;-70
2022/03/04 03:08:50;;;;;;;16.35;7.53;;;11.40;53.00;;;;;;6271410;28;20112;-69
2022/03/04 03:11:51;;;;;;;18.63;8.52;;;11.40;53.10;;;;;;6269966;28;20053;-69
2022/03/04 03:14:52;;;;;;;17.60;8.05;;;11.30;53.10;;;;;;6254710;28;20071;-69
2022/03/04 03:17:55;;;;;;;15.05;7.60;;;11.30;53.10;;;;;;6246533;28;20121;-69
2022/03/04 03:20:56;;;;;;;15.93;7.95;;;11.20;53.30;;;;;;6247677;28;20425;-69
2022/03/04 03:23:57;;;;;;;19.35;7.70;;;11.20;53.40;;;;;;6246246;28;20049;-69
2022/03/04 03:26:58;;;;;;;20.25;8.90;;;11.20;53.40;;;;;;6247329;28;20044;-69
2022/03/04 03:29:59;;;;;;;20.98;8.82;;;11.20;53.50;;;;;;6262581;28;20036;-69
2022/03/04 03:33:00;;;;;;;22.35;9.38;;;11.20;53.50;;;;;;6272042;28;20438;-69
2022/03/04 03:36:00;;;;;;;19.05;8.95;;;11.20;53.60;;;;;;6271127;28;20043;-70
2022/03/04 03:39:02;;;;;;;25.75;10.10;;;11.20;53.60;;;;;;6271003;28;20102;-70
2022/03/04 03:42:04;;;;;;;21.05;9.63;;;11.20;53.70;;;;;;6270425;28;20111;-69
2022/03/04 03:45:07;;;;;;;20.58;8.55;;;11.20;53.70;;;;;;6270736;28;20033;-69
2022/03/04 03:48:08;;;;;;;22.40;9.13;;;11.10;53.80;;;;;;6271007;28;20067;-69
2022/03/04 03:51:10;;;;;;;19.50;8.70;;;11.10;53.90;;;;;;6245764;28;20069;-69
2022/03/04 03:54:10;;;;;;;27.20;8.43;;;11.10;54.10;;;;;;6246109;28;20045;-69
2022/03/04 03:57:11;;;;;;;16.45;8.73;;;11.00;54.10;;;;;;6270371;28;20041;-69
2022/03/04 04:00:13;;;;;;;19.00;8.77;;;11.00;54.10;;;;;;6270624;28;20469;-69
2022/03/04 04:03:14;;;;;;;16.20;7.40;;;11.00;54.20;;;;;;6271913;28;20055;-69
2022/03/04 04:06:15;;;;;;;21.75;7.95;;;11.00;54.10;;;;;;6271875;28;20041;-71
2022/03/04 04:09:16;;;;;;;23.98;9.00;;;11.00;54.20;;;;;;6275698;28;20393;-69
2022/03/04 04:12:17;;;;;;;19.00;8.77;;;11.00;54.20;;;;;;6273813;28;20064;-69
2022/03/04 04:15:18;;;;;;;25.38;9.05;;;10.90;54.20;;;;;;6275769;28;20037;-69
2022/03/04 04:18:19;;;;;;;19.38;9.20;;;10.90;54.30;;;;;;6250407;28;20029;-69
2022/03/04 04:21:20;;;;;;;24.23;9.05;;;10.90;54.50;;;;;;6267835;28;20025;-69
2022/03/04 04:24:21;;;;;;;22.38;9.23;;;10.80;54.60;;;;;;6276102;28;20040;-69
2022/03/04 04:27:22;;;;;;;27.70;9.20;;;10.70;54.60;;;;;;6275464;28;20037;-69
2022/03/04 04:30:24;;;;;;;19.20;8.27;;;10.70;54.70;;;;;;6274503;28;20033;-69
2022/03/04 04:33:25;;;;;;;18.85;9.18;;;10.70;54.80;;;;;;6259348;28;20147;-69
2022/03/04 04:36:26;;;;;;;20.83;8.05;;;10.60;54.80;;;;;;6247232;28;20033;-69
2022/03/04 04:39:27;;;;;;;16.52;7.60;;;10.60;54.90;;;;;;6249807;28;20029;-69
2022/03/04 04:42:28;;;;;;;24.95;9.60;;;10.60;55.00;;;;;;6265461;28;20025;-69
2022/03/04 04:45:29;;;;;;;22.90;8.93;;;10.50;55.00;;;;;;6233152;28;20025;-69
2022/03/04 04:48:31;;;;;;;19.88;9.02;;;10.60;55.10;;;;;;6265862;28;20144;-69
2022/03/04 04:51:31;;;;;;;18.05;8.15;;;10.60;55.10;;;;;;6272743;28;20032;-69
2022/03/04 04:54:34;;;;;;;19.95;8.68;;;10.50;55.10;;;;;;6273874;28;20123;-69
2022/03/04 04:57:35;;;;;;;20.55;8.98;;;10.50;55.20;;;;;;6271311;28;20033;-69
2022/03/04 05:00:36;;;;;;;22.17;8.90;;;10.50;55.30;;;;;;6274101;28;20056;-69
2022/03/04 05:03:37;;;;;;;21.05;9.02;;;10.60;55.40;;;;;;6274827;28;20473;-69
2022/03/04 05:06:38;;;;;;;24.38;10.63;;;10.60;55.40;;;;;;6274739;28;20083;-69
2022/03/04 05:09:39;;;;;;;23.67;11.48;;;10.50;55.40;;;;;;6273376;28;20033;-69
2022/03/04 05:12:40;;;;;;;27.23;12.98;;;10.60;55.50;;;;;;6268699;28;20033;-69
2022/03/04 05:15:41;;;;;;;27.42;12.23;;;10.60;55.50;;;;;;6273652;28;20036;-69
2022/03/04 05:18:42;;;;;;;27.38;13.20;;;10.50;55.60;;;;;;6255639;28;20037;-69
2022/03/04 05:21:43;;;;;;;30.77;13.00;;;10.50;55.60;;;;;;6274441;28;20045;-69
2022/03/04 05:24:45;;;;;;;23.75;12.13;;;10.50;55.60;;;;;;6273404;28;20411;-69
2022/03/04 05:27:46;;;;;;;28.65;12.88;;;10.50;55.70;;;;;;6272914;28;20335;-69
2022/03/04 05:30:46;;;;;;;30.75;13.07;;;10.40;55.70;;;;;;6256332;28;20032;-69
2022/03/04 05:33:47;;;;;;;24.67;11.63;;;10.40;55.80;;;;;;6274421;28;20458;-70
2022/03/04 05:36:48;;;;;;;26.63;12.07;;;10.40;55.90;;;;;;6274066;28;20033;-70
2022/03/04 05:39:49;;;;;;;17.50;9.68;;;10.30;55.90;;;;;;6272941;28;20029;-70
2022/03/04 05:42:50;;;;;;;21.55;10.25;;;10.30;56.00;;;;;;6272159;28;20037;-70
2022/03/04 05:45:54;;;;;;;25.70;10.18;;;10.20;56.10;;;;;;6272643;28;20055;-70
2022/03/04 05:48:55;;;;;;;22.67;9.98;;;10.20;56.80;;;;;;6272763;28;20051;-70
2022/03/04 05:51:56;;;;;;;27.95;9.25;;;10.10;56.40;;;;;;6271938;28;20045;-71
2022/03/04 05:54:57;;;;;;;27.50;10.50;;;10.10;56.30;;;;;;6247608;28;20038;-70
2022/03/04 05:57:57;;;;;;;26.60;10.27;;;10.10;56.20;;;;;;6247692;28;20038;-73
2022/03/04 06:00:58;;;;;;;23.83;10.90;;;10.10;56.20;;;;;;6248012;28;20144;-71
2022/03/04 06:03:59;;;;;;;25.42;10.75;;;10.20;56.20;;;;;;6252472;28;20029;-71
2022/03/04 06:07:00;;;;;;;30.88;11.73;;;10.20;56.20;;;;;;6258190;28;20501;-70
2022/03/04 06:10:04;;;;;;;19.35;9.57;;;10.20;56.10;;;;;;6243677;28;20041;-72
2022/03/04 06:13:06;;;;;;;24.23;10.02;;;10.20;56.10;;;;;;6258102;28;20036;-70
2022/03/04 06:16:07;;;;;;;22.60;8.98;;;10.20;56.00;;;;;;6254204;28;20513;-71
2022/03/04 06:19:08;;;;;;;23.60;9.82;;;10.20;56.10;;;;;;6256486;28;20053;-71
2022/03/04 06:22:09;;;;;;;28.83;9.18;;;10.20;56.10;;;;;;6259107;28;20106;-71
2022/03/04 06:25:12;;;;;;;22.40;8.85;;;10.20;56.20;;;;;;6256450;28;20037;-69
2022/03/04 06:28:12;;;;;;;26.95;9.93;;;10.20;56.20;;;;;;6262561;28;20175;-70
2022/03/04 06:31:13;;;;;;;25.05;9.48;;;10.20;56.40;;;;;;6261253;28;20466;-70
2022/03/04 06:34:14;;;;;;;28.85;9.90;;;10.10;56.40;;;;;;6253621;28;20049;-68
2022/03/04 06:37:15;;;;;;;26.55;9.75;;;10.10;56.50;;;;;;6269204;28;20037;-68
2022/03/04 06:40:17;;;;;;;22.95;10.18;;;10.10;56.60;;;;;;6255177;28;20041;-71
2022/03/04 06:43:19;;;;;;;22.55;9.93;;;10.10;56.70;;;;;;6259283;28;20399;-70
2022/03/04 06:46:20;;;;;;;21.80;9.15;;;10.10;56.70;;;;;;6250828;28;20041;-69
2022/03/04 06:49:20;;;;;;;22.52;9.95;;;10.10;56.70;;;;;;6249885;28;20052;-71
2022/03/04 06:52:22;;;;;;;25.92;9.90;;;10.10;56.80;;;;;;6255817;28;20053;-68
2022/03/04 06:55:23;;;;;;;20.55;9.10;;;10.10;56.80;;;;;;6243893;28;20485;-69
2022/03/04 06:58:24;;;;;;;25.95;10.20;;;10.10;56.70;;;;;;6247047;28;20033;-68
2022/03/04 07:01:24;;;;;;;25.25;10.30;;;10.10;56.70;;;;;;6249480;28;20051;-69
2022/03/04 07:04:25;;;;;;;22.35;10.40;;;10.10;56.70;;;;;;6266285;28;20473;-68
2022/03/04 07:07:26;;;;;;;24.45;10.48;;;10.10;56.80;;;;;;6271352;28;20037;-68
2022/03/04 07:10:27;;;;;;;23.48;11.10;;;10.10;56.80;;;;;;6242905;28;20352;-69
2022/03/04 07:13:29;;;;;;;22.42;10.98;;;10.10;56.80;;;;;;6265820;28;20041;-69
2022/03/04 07:16:30;;;;;;;22.50;9.75;;;10.10;56.90;;;;;;6256558;28;20053;-68
2022/03/04 07:19:31;;;;;;;23.45;10.85;;;10.10;56.80;;;;;;6230419;28;20117;-68
2022/03/04 07:22:32;;;;;;;31.95;11.02;;;10.10;56.90;;;;;;6241352;28;20037;-68
2022/03/04 07:25:33;;;;;;;24.63;10.73;;;10.10;56.80;;;;;;6254742;28;20038;-68
2022/03/04 07:28:36;;;;;;;37.85;10.77;;;10.10;56.90;;;;;;6245121;28;20029;-70
2022/03/04 07:31:36;;;;;;;33.65;11.20;;;10.10;56.90;;;;;;6248253;28;20076;-70
2022/03/04 07:34:37;;;;;;;26.35;12.00;;;10.20;57.00;;;;;;6246849;28;20037;-69
2022/03/04 07:37:40;;;;;;;29.88;12.45;;;10.20;56.90;;;;;;6229663;28;20056;-68
2022/03/04 07:40:41;;;;;;;32.35;11.65;;;10.30;56.90;;;;;;6229096;28;20416;-70
2022/03/04 07:43:42;;;;;;;33.10;11.90;;;10.30;56.80;;;;;;6274347;28;20041;-70
2022/03/04 07:46:43;;;;;;;39.67;13.02;;;10.40;56.70;;;;;;6276725;28;20492;-69
2022/03/04 07:49:44;;;;;;;27.60;10.68;;;10.50;56.60;;;;;;6258730;28;20051;-70
2022/03/04 07:52:45;;;;;;;43.55;11.80;;;10.60;56.50;;;;;;6275084;28;20029;-69
2022/03/04 07:55:46;;;;;;;23.73;11.88;;;10.70;56.40;;;;;;6275235;28;20037;-69
2022/03/04 07:58:47;;;;;;;29.80;11.80;;;10.80;56.20;;;;;;6263265;28;20104;-68
2022/03/04 08:01:48;;;;;;;38.95;13.10;;;10.80;56.10;;;;;;6247057;28;20516;-69
2022/03/04 08:04:49;;;;;;;29.73;12.82;;;10.90;56.00;;;;;;6259429;28;20385;-69
2022/03/04 08:07:50;;;;;;;31.60;11.35;;;10.90;55.90;;;;;;6261055;28;20099;-69
2022/03/04 08:10:54;;;;;;;34.47;12.95;;;11.00;55.80;;;;;;6243755;28;20037;-68
2022/03/04 08:13:55;;;;;;;35.78;12.20;;;11.10;55.80;;;;;;6261209;28;20052;-69
2022/03/04 08:16:55;;;;;;;27.50;12.70;;;11.10;55.60;;;;;;6260839;28;20036;-69
2022/03/04 08:19:56;;;;;;;30.45;12.23;;;11.20;55.60;;;;;;6262509;28;20045;-69
2022/03/04 08:22:58;;;;;;;23.65;11.45;;;11.20;55.50;;;;;;6261211;28;20028;-69
2022/03/04 08:26:03;;;;;;;20.58;11.65;;;11.30;55.30;;;;;;6227340;28;20401;-69
2022/03/04 08:29:08;;;;;;;28.85;13.25;;;11.30;55.20;;;;;;6238821;28;20030;-69
2022/03/04 08:32:09;;;;;;;31.15;12.73;;;11.40;55.10;;;;;;6237960;28;20107;-69
2022/03/04 08:35:10;;;;;;;25.25;12.13;;;11.50;55.00;;;;;;6236473;28;20160;-69
2022/03/04 08:38:11;;;;;;;30.25;12.63;;;11.50;55.00;;;;;;6237368;28;20030;-69
2022/03/04 08:41:12;;;;;;;24.55;12.02;;;11.60;54.90;;;;;;6259719;28;20111;-69
2022/03/04 08:44:13;;;;;;;34.40;12.75;;;11.70;54.90;;;;;;6261592;28;20029;-69
2022/03/04 08:47:14;;;;;;;27.30;13.05;;;11.80;54.70;;;;;;6240928;28;20121;-69
2022/03/04 08:50:16;;;;;;;35.60;12.73;;;12.00;54.60;;;;;;6250150;28;20045;-69
2022/03/04 08:53:17;;;;;;;25.85;11.32;;;12.00;54.50;;;;;;6232858;28;20059;-69
2022/03/04 08:56:18;;;;;;;28.40;12.77;;;12.10;54.30;;;;;;6250408;28;20386;-69
2022/03/04 08:59:19;;;;;;;28.80;11.13;;;12.30;54.00;;;;;;6272877;28;20489;-69
2022/03/04 09:02:20;;;;;;;34.00;12.93;;;12.40;53.70;;;;;;6255054;28;20128;-69
2022/03/04 09:05:21;;;;;;;30.83;12.18;;;12.60;53.40;;;;;;6251016;28;20098;-69
2022/03/04 09:08:22;;;;;;;29.42;11.98;;;12.70;53.00;;;;;;6259898;28;20076;-69
2022/03/04 09:11:23;;;;;;;34.53;13.32;;;12.90;52.80;;;;;;6260393;28;20045;-70
2022/03/04 09:14:24;;;;;;;27.63;11.20;;;13.10;52.50;;;;;;6259749;28;20037;-69
2022/03/04 09:17:25;;;;;;;25.92;13.43;;;13.20;51.60;;;;;;6261491;28;20044;-70
2022/03/04 09:20:26;;;;;;;25.33;11.63;;;13.40;50.90;;;;;;6260023;28;20029;-69
2022/03/04 09:23:27;;;;;;;32.08;12.95;;;13.50;50.50;;;;;;6260273;28;20056;-69
2022/03/04 09:26:28;;;;;;;28.20;12.02;;;13.60;49.90;;;;;;6250836;28;20037;-69
2022/03/04 09:29:29;;;;;;;26.20;11.70;;;13.70;49.20;;;;;;6260560;28;20136;-69
2022/03/04 09:32:30;;;;;;;34.00;11.80;;;13.70;48.50;;;;;;6261917;28;20033;-69
2022/03/04 09:35:30;;;;;;;24.58;11.63;;;13.70;48.10;;;;;;6260630;28;20029;-69
2022/03/04 09:38:31;;;;;;;28.60;12.07;;;13.80;48.00;;;;;;6259616;28;20057;-68
2022/03/04 09:41:32;;;;;;;28.10;11.40;;;13.90;47.70;;;;;;6260010;28;20103;-70
2022/03/04 09:44:33;;;;;;;23.00;11.98;;;14.00;47.30;;;;;;6259314;28;20033;-70
2022/03/04 09:47:35;;;;;;;29.55;13.52;;;14.10;47.00;;;;;;6262569;28;20072;-69
2022/03/04 09:50:37;;;;;;;28.98;13.38;;;14.10;46.80;;;;;;6251378;28;20492;-68
2022/03/04 09:53:38;;;;;;;34.92;13.68;;;14.20;46.90;;;;;;6257461;28;20084;-68
2022/03/04 09:56:39;;;;;;;26.10;11.75;;;14.30;46.80;;;;;;6259682;28;20033;-68
2022/03/04 09:59:39;;;;;;;23.38;11.63;;;14.40;45.90;;;;;;6258097;28;20164;-68
2022/03/04 10:02:41;;;;;;;25.08;11.10;;;14.50;45.90;;;;;;6259852;28;20029;-69
2022/03/04 10:05:55;;;;;;;26.65;12.48;;;14.60;46.00;;;;;;6259923;28;20099;-69
2022/03/04 10:08:56;;;;;;;28.73;12.80;;;14.70;45.80;;;;;;6259078;28;20057;-69
2022/03/04 10:12:07;;;;;;;22.48;11.00;;;14.80;46.20;;;;;;6264232;28;20071;-68
2022/03/04 10:15:08;;;;;;;42.17;15.38;;;14.90;45.10;;;;;;6272610;28;20048;-69
2022/03/04 10:18:10;;;;;;;36.15;11.73;;;15.00;44.70;;;;;;6271411;28;20068;-70
2022/03/04 10:21:11;;;;;;;24.13;10.20;;;15.10;44.60;;;;;;6247797;28;20101;-68
2022/03/04 10:24:15;;;;;;;25.30;12.05;;;15.20;44.40;;;;;;6258667;28;20061;-68
2022/03/04 10:27:17;;;;;;;24.40;10.30;;;15.40;44.20;;;;;;6243063;28;20040;-68
2022/03/04 10:30:31;;;;;;;25.17;10.93;;;15.40;43.80;;;;;;6257642;28;20116;-68
2022/03/04 10:33:32;;;;;;;20.77;10.75;;;15.50;43.20;;;;;;6255386;28;20033;-68
2022/03/04 10:36:33;;;;;;;34.35;11.05;;;15.70;42.20;;;;;;6255192;28;20044;-69
2022/03/04 10:39:33;;;;;;;22.80;11.13;;;15.90;42.00;;;;;;6256798;28;20033;-71
2022/03/04 10:42:46;;;;;;;26.30;11.60;;;16.10;41.30;;;;;;6256192;28;20067;-70
2022/03/04 10:45:47;;;;;;;24.33;11.73;;;16.50;40.80;;;;;;6256643;28;20044;-68
2022/03/04 10:48:52;;;;;;;35.28;14.77;;;16.80;39.90;;;;;;6259595;28;20025;-69
2022/03/04 10:52:12;;;;;;;48.75;20.63;;;17.10;39.50;;;;;;6256714;28;20446;-70
2022/03/04 10:55:12;;;;;;;52.22;18.80;;;17.30;39.40;;;;;;6246975;28;20041;-70
2022/03/04 10:58:21;;;;;;;36.97;14.88;;;17.50;38.80;;;;;;6263923;28;20350;-69
2022/03/04 11:01:21;;;;;;;31.83;13.30;;;17.70;38.20;;;;;;6247192;28;20099;-68
2022/03/04 11:04:23;;;;;;;30.25;13.10;;;17.90;37.90;;;;;;6269567;28;20060;-69
2022/03/04 11:07:24;;;;;;;29.55;12.25;;;18.00;37.20;;;;;;6270556;28;20044;-69
2022/03/04 11:10:25;;;;;;;23.58;11.10;;;18.20;36.90;;;;;;6270035;28;20053;-68
2022/03/04 11:13:29;;;;;;;48.17;18.42;;;18.40;36.60;;;;;;6268549;28;20132;-70
2022/03/04 11:16:31;;;;;;;30.02;12.25;;;18.70;35.60;;;;;;6270830;28;20029;-69
2022/03/04 11:19:34;;;;;;;34.75;12.95;;;18.80;35.10;;;;;;6273708;28;20044;-70
2022/03/04 11:22:40;;;;;;;38.15;13.45;;;19.00;35.00;;;;;;6276307;28;20033;-68
2022/03/04 11:25:45;;;;;;;50.28;21.02;;;19.30;34.60;;;;;;6259267;28;20098;-68
2022/03/04 11:28:50;;;;;;;32.85;14.60;;;19.40;33.60;;;;;;6275136;28;20438;-69
2022/03/04 11:31:52;;;;;;;34.45;13.30;;;19.60;33.10;;;;;;6275045;28;20040;-69
2022/03/04 11:34:52;;;;;;;26.55;12.00;;;19.90;32.90;;;;;;6276289;28;20366;-68
2022/03/04 11:37:55;;;;;;;28.55;12.57;;;20.20;32.70;;;;;;6258499;28;20043;-69
2022/03/04 11:40:55;;;;;;;47.95;19.23;;;20.50;32.00;;;;;;6258340;28;20489;-69
2022/03/04 11:44:18;;;;;;;45.42;16.40;;;20.80;30.80;;;;;;6273885;28;20123;-68
2022/03/04 11:47:19;;;;;;;31.58;12.57;;;21.00;30.20;;;;;;6275764;28;20218;-69
2022/03/04 11:50:29;;;;;;;35.75;15.23;;;21.30;30.00;;;;;;6276417;28;20052;-69
2022/03/04 11:53:30;;;;;;;32.45;13.80;;;21.70;29.40;;;;;;6275367;28;20087;-69
2022/03/04 11:56:50;;;;;;;30.92;12.05;;;22.10;29.00;;;;;;6275354;28;20037;-69
2022/03/04 12:00:20;;;;;;;22.70;11.70;;;22.60;28.50;;;;;;6275851;28;20047;-69
2022/03/04 12:03:21;;;;;;;24.70;11.20;;;23.00;27.60;;;;;;6275835;28;20344;-69
2022/03/04 12:06:25;;;;;;;23.23;10.50;;;23.40;27.10;;;;;;6276702;28;20041;-70
2022/03/04 12:09:29;;;;;;;24.40;10.38;;;23.60;27.00;;;;;;6275509;28;20523;-70
2022/03/04 12:12:30;;;;;;;24.88;10.68;;;24.00;26.90;;;;;;6255500;28;20029;-70
2022/03/04 12:15:38;;;;;;;21.83;10.65;;;24.30;25.80;;;;;;6261565;28;20124;-70
2022/03/04 12:18:45;;;;;;;20.27;8.63;;;24.70;25.40;;;;;;6275642;28;20043;-70
2022/03/04 12:21:47;;;;;;;19.30;7.80;;;24.90;25.00;;;;;;6273296;28;20464;-70
2022/03/04 12:24:53;;;;;;;22.40;8.13;;;25.20;24.20;;;;;;6269982;28;20111;-70
2022/03/04 12:27:54;;;;;;;13.00;7.70;;;25.40;23.20;;;;;;6275340;28;20500;-71
2022/03/04 12:31:01;;;;;;;16.50;6.95;;;25.40;22.90;;;;;;6275114;28;20102;-70
2022/03/04 12:34:02;;;;;;;14.10;6.47;;;25.70;22.60;;;;;;6256444;28;20108;-70
2022/03/04 12:37:05;;;;;;;17.05;7.45;;;25.90;21.70;;;;;;6251159;28;20335;-70
2022/03/04 12:40:08;;;;;;;15.20;7.93;;;26.00;21.50;;;;;;6250720;28;20328;-70
2022/03/04 12:43:10;;;;;;;14.05;7.57;;;25.90;21.30;;;;;;6282908;28;20029;-70
2022/03/04 12:46:13;;;;;;;19.27;9.40;;;26.00;21.20;;;;;;6251157;28;20116;-70
2022/03/04 12:49:16;;;;;;;14.00;7.35;;;26.20;21.20;;;;;;6250762;28;20076;-69
2022/03/04 12:52:20;;;;;;;13.88;6.55;;;26.40;21.10;;;;;;6249336;28;20040;-69
2022/03/04 12:55:22;;;;;;;13.80;7.38;;;26.50;20.50;;;;;;6249705;28;20474;-70
2022/03/04 12:58:40;;;;;;;13.82;8.10;;;25.90;20.30;;;;;;6252899;28;20055;-70
2022/03/04 13:01:46;;;;;;;14.35;7.25;;;24.90;21.20;;;;;;6254839;28;20025;-69
2022/03/04 13:04:58;;;;;;;13.82;6.65;;;24.10;21.70;;;;;;6274452;28;20063;-69
2022/03/04 13:07:59;;;;;;;16.48;7.07;;;23.60;22.60;;;;;;6273261;28;20025;-69
2022/03/04 13:11:15;;;;;;;18.40;7.10;;;23.60;22.70;;;;;;6273830;28;20037;-69
2022/03/04 13:14:18;;;;;;;14.32;7.55;;;23.80;22.70;;;;;;6253744;28;20040;-69
2022/03/04 13:17:19;;;;;;;13.75;6.78;;;23.40;23.00;;;;;;6272369;28;20508;-69
2022/03/04 13:20:20;;;;;;;14.32;7.78;;;22.80;23.60;;;;;;6272733;28;20087;-69
2022/03/04 13:23:20;;;;;;;16.85;7.18;;;22.30;23.80;;;;;;6255617;28;20040;-70
2022/03/04 13:26:22;;;;;;;13.60;6.65;;;21.80;24.20;;;;;;6254001;28;20438;-69
2022/03/04 13:29:29;;;;;;;12.82;6.57;;;21.30;24.20;;;;;;6272956;28;20041;-68
2022/03/04 13:32:30;;;;;;;19.80;6.00;;;20.90;24.60;;;;;;6266931;28;20029;-69
2022/03/04 13:35:31;;;;;;;15.52;6.03;;;20.60;25.10;;;;;;6253386;28;20434;-70
2022/03/04 13:38:32;;;;;;;10.50;5.78;;;20.40;25.20;;;;;;6272062;28;20079;-70
2022/03/04 13:41:33;;;;;;;17.65;6.28;;;20.20;25.10;;;;;;6269966;28;20108;-69
2022/03/04 13:44:34;;;;;;;9.70;4.97;;;20.00;25.30;;;;;;6271110;28;20431;-70
2022/03/04 13:47:39;;;;;;;12.43;5.55;;;19.90;25.60;;;;;;6270298;28;20025;-69
2022/03/04 13:50:41;;;;;;;12.30;4.82;;;19.80;25.60;;;;;;6270481;28;20437;-70
2022/03/04 13:53:56;;;;;;;10.77;4.80;;;19.60;25.70;;;;;;6270431;28;20037;-69
2022/03/04 13:56:57;;;;;;;16.60;5.18;;;19.60;26.10;;;;;;6271714;28;20036;-68
2022/03/04 14:00:11;;;;;;;13.38;5.53;;;19.60;26.30;;;;;;6271760;28;20037;-69
2022/03/04 14:03:15;;;;;;;10.05;5.30;;;19.50;26.40;;;;;;6260785;28;20033;-69
2022/03/04 14:06:18;;;;;;;12.38;5.00;;;19.40;26.30;;;;;;6271480;28;20424;-69
2022/03/04 14:09:21;;;;;;;16.90;5.90;;;19.30;26.70;;;;;;6272499;28;20041;-68
2022/03/04 14:12:22;;;;;;;11.55;5.35;;;19.30;26.90;;;;;;6245558;28;20071;-69
2022/03/04 14:15:23;;;;;;;17.10;6.28;;;19.30;27.10;;;;;;6263216;28;20036;-70
2022/03/04 14:18:26;;;;;;;18.35;6.43;;;19.20;27.40;;;;;;6272603;28;20470;-69
2022/03/04 14:21:26;;;;;;;12.27;5.28;;;19.00;27.50;;;;;;6272577;28;20494;-69
2022/03/04 14:24:27;;;;;;;15.48;6.25;;;19.10;27.90;;;;;;6272987;28;20047;-69
2022/03/04 14:27:28;;;;;;;12.15;5.95;;;19.10;28.00;;;;;;6270971;28;20338;-69
2022/03/04 14:30:34;;;;;;;14.93;6.30;;;19.00;28.10;;;;;;6245354;28;20144;-72
2022/03/04 14:33:35;;;;;;;11.20;5.40;;;18.90;28.20;;;;;;6245977;28;20041;-69
2022/03/04 14:36:36;;;;;;;16.33;5.65;;;18.90;28.30;;;;;;6247501;28;20421;-69
2022/03/04 14:39:36;;;;;;;18.45;6.20;;;18.90;28.20;;;;;;6221745;28;20357;-70
2022/03/04 14:42:38;;;;;;;14.70;5.90;;;18.80;28.30;;;;;;6222877;28;20450;-69
2022/03/04 14:45:40;;;;;;;17.42;6.05;;;18.80;28.40;;;;;;6245981;28;20033;-69
2022/03/04 14:48:41;;;;;;;24.98;6.43;;;18.80;28.30;;;;;;6246143;28;20034;-69
2022/03/04 14:51:42;;;;;;;11.88;5.28;;;18.70;28.20;;;;;;6246994;28;20037;-69
2022/03/04 14:54:44;;;;;;;10.68;5.43;;;18.70;28.20;;;;;;6229533;28;20099;-69
2022/03/04 14:57:46;;;;;;;12.63;5.57;;;18.70;28.30;;;;;;6246474;28;20176;-69
2022/03/04 15:00:47;;;;;;;13.50;6.68;;;18.70;28.20;;;;;;6254621;28;20037;-69
2022/03/04 15:03:51;;;;;;;13.25;5.50;;;18.60;28.30;;;;;;6261269;28;20484;-69
2022/03/04 15:06:52;;;;;;;29.35;5.95;;;18.60;28.50;;;;;;6271140;28;20041;-69
2022/03/04 15:09:53;;;;;;;15.70;5.65;;;18.60;28.50;;;;;;6272814;28;20049;-69
2022/03/04 15:12:54;;;;;;;12.93;5.82;;;18.50;28.50;;;;;;6269852;28;20374;-69
2022/03/04 15:15:56;;;;;;;15.88;6.32;;;18.50;28.60;;;;;;6254753;28;20033;-69
2022/03/04 15:18:57;;;;;;;12.82;5.78;;;18.50;28.70;;;;;;6272777;28;20119;-71
2022/03/04 15:21:58;;;;;;;18.38;5.85;;;18.40;28.80;;;;;;6271425;28;20035;-69
2022/03/04 15:24:59;;;;;;;19.10;7.57;;;18.30;28.90;;;;;;6271417;28;20091;-69
2022/03/04 15:28:00;;;;;;;14.23;6.25;;;18.30;29.10;;;;;;6272429;28;20025;-69
2022/03/04 15:31:01;;;;;;;16.38;6.20;;;18.20;29.20;;;;;;6272839;28;20183;-70